Time;durP1;ratioP1;P1;durP2;ratioP2;P2;SDS_P1;SDS_P2;PMS_P1;PMS_P2;Temp;Humidity;BMP_temperature;BMP_pressure;BME280_temperature;BME280_humidity;BME280_pressure;Samples;Min_cycle;Max_cycle;Signal;HPM_P1;HPM_P2
2022/10/25 00:01:14;;;;;;;1.40;1.40;;;11.90;99.90;;;;;;6140259;29;20455;-68
2022/10/25 00:04:20;;;;;;;1.33;1.33;;;11.90;99.90;;;;;;6139989;29;20291;-68
2022/10/25 00:07:30;;;;;;;1.30;1.30;;;11.80;99.90;;;;;;6139707;29;20299;-68
2022/10/25 00:10:36;;;;;;;1.27;1.27;;;11.80;99.90;;;;;;6131316;29;20267;-68
2022/10/25 00:13:41;;;;;;;1.40;1.40;;;11.90;99.90;;;;;;6115996;29;20295;-68
2022/10/25 00:16:46;;;;;;;1.33;1.33;;;11.90;99.90;;;;;;6116912;29;20467;-68
2022/10/25 00:19:52;;;;;;;2.65;1.58;;;11.90;99.90;;;;;;6115945;29;20320;-68
2022/10/25 00:22:57;;;;;;;1.50;1.50;;;11.90;99.90;;;;;;6116239;29;20291;-68
2022/10/25 00:26:03;;;;;;;1.50;1.50;;;11.90;99.90;;;;;;6116387;29;20588;-68
2022/10/25 00:29:09;;;;;;;1.52;1.52;;;12.00;99.90;;;;;;6118398;29;20508;-68
2022/10/25 00:32:14;;;;;;;1.50;1.50;;;12.00;99.90;;;;;;6121008;29;20443;-68
2022/10/25 00:35:20;;;;;;;1.42;1.42;;;12.00;99.90;;;;;;6121384;29;20301;-68
2022/10/25 00:38:25;;;;;;;1.50;1.50;;;12.00;99.90;;;;;;6120776;29;20610;-68
2022/10/25 00:41:32;;;;;;;1.30;1.30;;;12.00;99.90;;;;;;6121237;29;20576;-68
2022/10/25 00:44:55;;;;;;;1.90;1.90;;;12.00;99.90;;;;;;6103729;29;20307;-68
2022/10/25 00:48:03;;;;;;;1.40;1.40;;;12.00;99.90;;;;;;6120225;29;20296;-68
2022/10/25 00:51:10;;;;;;;1.38;1.38;;;12.00;99.90;;;;;;6120695;29;20280;-68
2022/10/25 00:54:18;;;;;;;1.83;1.83;;;12.00;99.90;;;;;;6120474;29;20296;-68
2022/10/25 00:57:28;;;;;;;1.80;1.80;;;12.00;99.90;;;;;;6120109;29;20303;-67
2022/10/25 01:00:33;;;;;;;4.32;1.80;;;12.00;99.90;;;;;;6120784;29;20271;-68
2022/10/25 01:03:39;;;;;;;2.00;2.00;;;12.00;99.90;;;;;;6119906;29;20300;-68
2022/10/25 01:06:49;;;;;;;2.00;1.90;;;12.10;99.90;;;;;;6120822;29;20292;-68
2022/10/25 01:09:54;;;;;;;2.30;2.20;;;12.00;99.90;;;;;;6120808;29;20312;-68
2022/10/25 01:13:01;;;;;;;2.08;2.05;;;12.10;99.90;;;;;;6143693;29;20290;-68
2022/10/25 01:16:14;;;;;;;2.47;2.47;;;12.10;99.90;;;;;;6144267;29;20279;-68
2022/10/25 01:19:43;;;;;;;2.28;2.28;;;12.10;99.90;;;;;;6143510;29;20299;-68
2022/10/25 01:22:58;;;;;;;2.45;2.45;;;12.10;99.90;;;;;;6142641;29;20295;-68
2022/10/25 01:26:43;;;;;;;2.95;2.88;;;12.20;99.90;;;;;;6143704;29;20292;-68
2022/10/25 01:30:08;;;;;;;3.10;2.80;;;12.20;99.90;;;;;;6143270;29;20299;-68
2022/10/25 01:33:22;;;;;;;3.28;3.17;;;12.20;99.90;;;;;;6143128;29;20294;-68
2022/10/25 01:36:37;;;;;;;3.22;3.13;;;12.20;99.90;;;;;;6143551;29;20276;-68
2022/10/25 01:39:47;;;;;;;3.45;3.33;;;12.20;99.90;;;;;;6142090;29;20308;-68
2022/10/25 01:43:00;;;;;;;4.55;4.10;;;12.20;99.90;;;;;;6142737;29;20294;-68
2022/10/25 01:46:12;;;;;;;4.32;4.13;;;12.20;99.90;;;;;;6143048;29;20287;-67
2022/10/25 01:49:24;;;;;;;5.45;4.95;;;12.30;99.90;;;;;;6142828;29;20299;-68
2022/10/25 01:52:29;;;;;;;9.57;6.22;;;12.30;99.90;;;;;;6142450;29;20296;-68
2022/10/25 01:55:39;;;;;;;10.30;6.38;;;12.30;99.90;;;;;;6126516;29;20275;-68
2022/10/25 01:58:52;;;;;;;12.35;7.38;;;12.30;99.90;;;;;;6142517;29;20303;-68
2022/10/25 02:02:04;;;;;;;20.65;8.77;;;12.30;99.90;;;;;;6142844;29;20455;-68
2022/10/25 02:05:17;;;;;;;20.17;8.90;;;12.30;99.90;;;;;;6142395;29;20276;-68
2022/10/25 02:08:35;;;;;;;22.40;10.00;;;12.30;99.90;;;;;;6142404;29;20311;-68
2022/10/25 02:11:40;;;;;;;26.45;10.88;;;12.30;99.90;;;;;;6125221;29;20264;-68
2022/10/25 02:14:54;;;;;;;24.10;10.82;;;12.30;99.90;;;;;;6118641;29;20311;-68
2022/10/25 02:18:00;;;;;;;33.95;11.85;;;12.30;99.90;;;;;;6118053;29;20300;-68
2022/10/25 02:21:07;;;;;;;30.90;11.90;;;12.40;99.90;;;;;;6118517;29;20276;-68
2022/10/25 02:24:17;;;;;;;31.10;12.15;;;12.40;99.90;;;;;;6118367;29;20596;-68
2022/10/25 02:27:22;;;;;;;33.00;13.65;;;12.30;99.90;;;;;;6118449;29;20300;-68
2022/10/25 02:30:28;;;;;;;31.73;13.05;;;12.30;99.90;;;;;;6118350;29;20268;-68
2022/10/25 02:33:33;;;;;;;30.60;13.10;;;12.30;99.90;;;;;;6118274;29;20300;-68
2022/10/25 02:36:39;;;;;;;37.10;13.35;;;12.30;99.90;;;;;;6118619;29;20283;-68
2022/10/25 02:39:44;;;;;;;30.75;12.30;;;12.30;99.90;;;;;;6118136;29;20300;-68
2022/10/25 02:42:49;;;;;;;28.75;11.93;;;12.40;99.90;;;;;;6117818;29;20623;-68
2022/10/25 02:45:54;;;;;;;29.25;12.70;;;12.40;99.90;;;;;;6117975;29;20280;-68
2022/10/25 02:48:59;;;;;;;29.45;11.98;;;12.40;99.90;;;;;;6117654;29;20300;-68
2022/10/25 02:52:05;;;;;;;28.23;12.32;;;12.40;99.90;;;;;;6117559;29;20449;-68
2022/10/25 02:55:10;;;;;;;27.77;12.02;;;12.40;99.90;;;;;;6118410;29;20272;-68
2022/10/25 02:58:16;;;;;;;25.92;11.73;;;12.40;99.90;;;;;;6117195;29;20305;-68
2022/10/25 03:01:21;;;;;;;29.45;11.85;;;12.40;99.90;;;;;;6126720;29;20306;-67
2022/10/25 03:04:25;;;;;;;25.27;11.32;;;12.50;99.90;;;;;;6123960;29;20624;-67
2022/10/25 03:07:32;;;;;;;26.70;11.63;;;12.50;99.90;;;;;;6123691;29;20284;-67
2022/10/25 03:10:37;;;;;;;24.77;11.25;;;12.50;99.90;;;;;;6124121;29;20271;-67
2022/10/25 03:13:42;;;;;;;21.30;9.93;;;12.50;99.90;;;;;;6140865;29;20300;-67
2022/10/25 03:16:46;;;;;;;22.55;10.80;;;12.50;99.90;;;;;;6141302;29;20279;-68
2022/10/25 03:19:56;;;;;;;28.08;11.50;;;12.50;99.90;;;;;;6126856;29;20462;-67
2022/10/25 03:23:02;;;;;;;25.25;11.75;;;12.50;99.90;;;;;;6116878;29;20297;-67
2022/10/25 03:26:08;;;;;;;22.08;10.82;;;12.50;99.90;;;;;;6117675;29;20275;-68
2022/10/25 03:29:14;;;;;;;26.35;11.23;;;12.50;99.90;;;;;;6117003;29;20575;-67
2022/10/25 03:32:19;;;;;;;25.23;10.82;;;12.60;99.90;;;;;;6116895;29;20272;-68
2022/10/25 03:35:24;;;;;;;29.38;11.90;;;12.60;99.90;;;;;;6100615;29;20275;-66
2022/10/25 03:38:30;;;;;;;22.85;10.27;;;12.50;99.90;;;;;;6138380;29;20303;-69
2022/10/25 03:41:35;;;;;;;22.15;9.52;;;12.60;99.90;;;;;;6140264;29;20274;-69
2022/10/25 03:44:40;;;;;;;22.95;10.02;;;12.60;99.90;;;;;;6140289;29;20457;-68
2022/10/25 03:47:45;;;;;;;20.77;10.27;;;12.60;99.90;;;;;;6139928;29;20298;-68
2022/10/25 03:50:51;;;;;;;20.52;10.45;;;12.60;99.90;;;;;;6140499;29;20271;-68
2022/10/25 03:53:57;;;;;;;24.25;9.43;;;12.50;99.90;;;;;;6140243;29;20300;-69
2022/10/25 03:57:03;;;;;;;21.23;9.85;;;12.50;99.90;;;;;;6140084;29;20270;-68
2022/10/25 04:00:10;;;;;;;18.55;9.32;;;12.60;99.90;;;;;;6140121;29;20295;-68
2022/10/25 04:03:16;;;;;;;18.42;9.13;;;12.60;99.90;;;;;;6139426;29;20294;-68
2022/10/25 04:06:20;;;;;;;21.90;9.45;;;12.50;99.90;;;;;;6140891;29;20279;-69
2022/10/25 04:09:27;;;;;;;18.80;9.25;;;12.50;99.90;;;;;;6139339;29;20488;-69
2022/10/25 04:12:31;;;;;;;19.58;9.68;;;12.60;99.90;;;;;;6116464;29;20275;-68
2022/10/25 04:15:38;;;;;;;16.42;8.88;;;12.50;99.90;;;;;;6116605;29;20271;-68
2022/10/25 04:18:42;;;;;;;15.90;9.40;;;12.50;99.90;;;;;;6116330;29;20303;-68
2022/10/25 04:21:47;;;;;;;18.25;9.65;;;12.50;99.90;;;;;;6116418;29;20271;-68
2022/10/25 04:24:53;;;;;;;17.80;9.18;;;12.60;99.90;;;;;;6116216;29;20303;-68
2022/10/25 04:27:59;;;;;;;18.33;9.20;;;12.60;99.90;;;;;;6115723;29;20307;-69
2022/10/25 04:31:04;;;;;;;17.10;9.02;;;12.60;99.90;;;;;;6116137;29;20276;-68
2022/10/25 04:34:10;;;;;;;18.52;9.75;;;12.60;99.90;;;;;;6116070;29;20295;-68
2022/10/25 04:37:15;;;;;;;19.23;9.70;;;12.60;99.90;;;;;;6116726;29;20365;-68
2022/10/25 04:40:21;;;;;;;20.83;9.90;;;12.60;99.90;;;;;;6115845;29;20285;-68
2022/10/25 04:43:29;;;;;;;20.02;10.30;;;12.60;99.90;;;;;;6115854;29;20308;-68
2022/10/25 04:46:34;;;;;;;21.02;10.30;;;12.70;99.90;;;;;;6116027;29;20275;-68
2022/10/25 04:49:39;;;;;;;20.15;10.25;;;12.70;99.90;;;;;;6115816;29;20490;-68
2022/10/25 04:52:43;;;;;;;16.90;9.55;;;12.60;99.90;;;;;;6115843;29;20304;-68
2022/10/25 04:55:57;;;;;;;21.60;9.98;;;12.70;99.90;;;;;;6115879;29;20275;-67
2022/10/25 04:59:02;;;;;;;23.45;10.77;;;12.70;99.90;;;;;;6099198;29;20592;-68
2022/10/25 05:02:07;;;;;;;19.73;10.43;;;12.70;99.90;;;;;;6116037;29;20292;-67
2022/10/25 05:05:11;;;;;;;20.40;10.38;;;12.70;99.90;;;;;;6115593;29;20299;-67
2022/10/25 05:08:17;;;;;;;20.33;10.57;;;12.70;99.90;;;;;;6115241;29;20312;-67
2022/10/25 05:11:24;;;;;;;24.33;10.73;;;12.70;99.90;;;;;;6128378;29;20275;-67
2022/10/25 05:14:29;;;;;;;17.95;10.18;;;12.70;99.90;;;;;;6139129;29;20311;-68
2022/10/25 05:17:34;;;;;;;20.17;9.63;;;12.70;99.90;;;;;;6143171;29;20271;-67
2022/10/25 05:20:39;;;;;;;19.83;9.48;;;12.70;99.90;;;;;;6143552;29;20270;-67
2022/10/25 05:23:44;;;;;;;22.20;10.98;;;12.70;99.90;;;;;;6143334;29;20594;-67
2022/10/25 05:26:50;;;;;;;18.50;9.93;;;12.70;99.90;;;;;;6143521;29;20276;-68
2022/10/25 05:29:55;;;;;;;21.08;10.27;;;12.70;99.90;;;;;;6143179;29;20460;-68
2022/10/25 05:33:00;;;;;;;21.67;11.70;;;12.70;99.90;;;;;;6143255;29;20295;-67
2022/10/25 05:36:09;;;;;;;23.48;11.70;;;12.70;99.90;;;;;;6143268;29;20271;-68
2022/10/25 05:39:14;;;;;;;26.65;12.48;;;12.80;99.90;;;;;;6142890;29;20299;-67
2022/10/25 05:42:20;;;;;;;26.67;12.32;;;12.80;99.90;;;;;;6142883;29;20279;-69
2022/10/25 05:45:25;;;;;;;26.95;12.23;;;12.80;99.90;;;;;;6143407;29;20276;-67
2022/10/25 05:48:31;;;;;;;23.50;11.32;;;12.80;99.90;;;;;;6142476;29;20300;-68
2022/10/25 05:51:36;;;;;;;22.42;11.55;;;12.80;99.90;;;;;;6143148;29;20464;-67
2022/10/25 05:54:42;;;;;;;23.52;11.75;;;12.80;99.90;;;;;;6142765;29;20477;-68
2022/10/25 05:57:52;;;;;;;26.50;11.70;;;12.80;99.90;;;;;;6142244;29;20299;-68
2022/10/25 06:01:00;;;;;;;27.27;12.90;;;12.80;99.90;;;;;;6142833;29;20267;-68
2022/10/25 06:04:06;;;;;;;25.65;12.00;;;12.80;99.90;;;;;;6142233;29;20295;-68
2022/10/25 06:07:11;;;;;;;30.20;11.93;;;12.80;99.90;;;;;;6116546;29;20277;-69
2022/10/25 06:10:16;;;;;;;26.95;11.85;;;12.80;99.90;;;;;;6104917;29;20480;-68
2022/10/25 06:13:23;;;;;;;23.83;12.68;;;12.80;99.90;;;;;;6142161;29;20299;-68
2022/10/25 06:16:28;;;;;;;24.48;11.48;;;12.80;99.90;;;;;;6142662;29;20278;-68
2022/10/25 06:19:33;;;;;;;21.70;11.23;;;12.80;99.90;;;;;;6141950;29;20300;-68
2022/10/25 06:22:37;;;;;;;21.92;10.93;;;12.80;99.90;;;;;;6141922;29;20583;-68
2022/10/25 06:25:42;;;;;;;24.45;11.57;;;12.70;99.90;;;;;;6142275;29;20275;-68
2022/10/25 06:28:51;;;;;;;22.13;11.45;;;12.70;99.90;;;;;;6141995;29;20303;-68
2022/10/25 06:31:56;;;;;;;26.08;11.32;;;12.80;99.90;;;;;;6141958;29;20271;-68
2022/10/25 06:35:01;;;;;;;25.70;11.45;;;12.80;99.90;;;;;;6141698;29;20303;-68
2022/10/25 06:38:06;;;;;;;23.85;11.25;;;12.80;99.90;;;;;;6141600;29;20290;-66
2022/10/25 06:41:16;;;;;;;23.30;10.98;;;12.80;99.90;;;;;;6141980;29;20271;-68
2022/10/25 06:44:22;;;;;;;24.27;10.27;;;12.80;99.90;;;;;;6141485;29;20295;-68
2022/10/25 06:47:27;;;;;;;20.50;11.27;;;12.90;99.90;;;;;;6141034;29;20279;-67
2022/10/25 06:50:32;;;;;;;24.88;10.18;;;12.90;99.90;;;;;;6141744;29;20323;-67
2022/10/25 06:53:38;;;;;;;19.17;9.77;;;12.90;99.90;;;;;;6141147;29;20299;-68
2022/10/25 06:56:43;;;;;;;17.23;8.90;;;12.90;99.90;;;;;;6141574;29;20551;-68
2022/10/25 06:59:49;;;;;;;18.55;9.27;;;12.90;99.90;;;;;;6141008;29;20306;-67
2022/10/25 07:02:55;;;;;;;19.17;9.55;;;12.90;99.90;;;;;;6141275;29;20291;-67
2022/10/25 07:06:00;;;;;;;15.88;9.18;;;12.90;99.90;;;;;;6141694;29;20276;-67
2022/10/25 07:09:08;;;;;;;17.05;9.13;;;12.90;99.90;;;;;;6126012;29;20300;-68
2022/10/25 07:12:13;;;;;;;20.30;9.45;;;12.90;99.90;;;;;;6095314;29;20454;-68
2022/10/25 07:15:20;;;;;;;17.27;9.35;;;12.90;99.90;;;;;;6093600;29;20303;-67
2022/10/25 07:18:25;;;;;;;16.60;9.43;;;12.90;99.90;;;;;;6093770;29;20305;-67
2022/10/25 07:21:32;;;;;;;16.05;9.20;;;13.00;99.90;;;;;;6093874;29;20281;-67
2022/10/25 07:24:37;;;;;;;14.70;9.15;;;13.00;99.90;;;;;;6093408;29;20305;-69
2022/10/25 07:27:41;;;;;;;16.20;9.48;;;13.00;99.90;;;;;;6093458;29;20289;-68
2022/10/25 07:30:48;;;;;;;15.38;8.68;;;13.00;99.90;;;;;;6093916;29;20301;-68
2022/10/25 07:33:54;;;;;;;11.15;8.70;;;13.10;99.90;;;;;;6093253;29;20300;-69
2022/10/25 07:36:59;;;;;;;20.15;9.23;;;13.10;99.90;;;;;;6093665;29;20597;-68
2022/10/25 07:40:06;;;;;;;15.05;9.65;;;13.10;99.90;;;;;;6092969;29;20304;-68
2022/10/25 07:43:11;;;;;;;19.65;10.13;;;13.10;99.90;;;;;;6092968;29;20300;-68
2022/10/25 07:46:18;;;;;;;19.50;9.40;;;13.10;99.90;;;;;;6093215;29;20276;-67
2022/10/25 07:49:23;;;;;;;18.65;10.32;;;13.10;99.90;;;;;;6093028;29;20308;-67
2022/10/25 07:52:27;;;;;;;17.42;10.77;;;13.10;99.90;;;;;;6093243;29;20272;-68
2022/10/25 07:55:32;;;;;;;15.10;9.90;;;13.10;99.90;;;;;;6093738;29;20272;-67
2022/10/25 07:58:37;;;;;;;18.65;10.55;;;13.20;99.90;;;;;;6092810;29;20580;-67
2022/10/25 08:01:43;;;;;;;19.00;10.40;;;13.20;99.90;;;;;;6093596;29;20272;-68
2022/10/25 08:04:48;;;;;;;17.55;10.60;;;13.30;99.90;;;;;;6093172;29;20481;-68
2022/10/25 08:07:57;;;;;;;19.23;11.02;;;13.20;99.90;;;;;;6092049;29;20300;-68
2022/10/25 08:11:06;;;;;;;20.05;10.90;;;13.30;99.90;;;;;;6116872;29;20288;-68
2022/10/25 08:14:11;;;;;;;21.92;11.25;;;13.30;99.90;;;;;;6116584;29;20596;-68
2022/10/25 08:17:18;;;;;;;18.52;10.13;;;13.30;99.90;;;;;;6116841;29;20271;-68
2022/10/25 08:20:22;;;;;;;19.23;10.43;;;13.30;99.90;;;;;;6115725;29;20288;-68
2022/10/25 08:23:47;;;;;;;21.17;11.00;;;13.30;99.90;;;;;;6116285;29;20299;-68
2022/10/25 08:26:52;;;;;;;20.33;10.70;;;13.40;99.90;;;;;;6116481;29;20279;-68
2022/10/25 08:29:56;;;;;;;19.55;11.15;;;13.40;99.90;;;;;;6116237;29;20312;-68
2022/10/25 08:33:03;;;;;;;19.88;11.15;;;13.50;99.90;;;;;;6116060;29;20579;-68
2022/10/25 08:36:13;;;;;;;21.50;11.48;;;13.50;99.90;;;;;;6116592;29;20408;-68
2022/10/25 08:39:17;;;;;;;22.48;10.55;;;13.60;99.90;;;;;;6115970;29;20299;-68
2022/10/25 08:42:29;;;;;;;22.65;10.65;;;13.60;99.90;;;;;;6115483;29;20560;-68
2022/10/25 08:45:37;;;;;;;16.85;10.20;;;13.60;99.90;;;;;;6116547;29;20272;-68
2022/10/25 08:48:48;;;;;;;20.08;10.57;;;13.60;99.90;;;;;;6116138;29;20296;-68
2022/10/25 08:51:54;;;;;;;20.25;11.07;;;13.70;99.90;;;;;;6120939;29;20296;-68
2022/10/25 08:55:01;;;;;;;21.08;10.10;;;13.80;99.90;;;;;;6120463;29;20324;-68
2022/10/25 08:58:18;;;;;;;18.10;10.48;;;13.90;99.90;;;;;;6120167;29;20595;-68
2022/10/25 09:01:36;;;;;;;19.42;10.50;;;13.90;99.90;;;;;;6120635;29;20272;-68
2022/10/25 09:04:43;;;;;;;15.50;8.90;;;14.00;99.90;;;;;;6120193;29;20599;-67
2022/10/25 09:08:04;;;;;;;13.98;9.02;;;14.00;99.90;;;;;;6124567;29;20298;-67
2022/10/25 09:11:19;;;;;;;13.73;7.93;;;14.00;99.90;;;;;;6129607;29;20394;-67
2022/10/25 09:14:32;;;;;;;9.77;8.05;;;14.00;99.90;;;;;;6119341;29;20300;-68
2022/10/25 09:17:47;;;;;;;12.63;7.82;;;14.00;99.90;;;;;;6119874;29;20276;-68
2022/10/25 09:20:54;;;;;;;12.68;7.70;;;13.90;99.90;;;;;;6120395;29;20276;-68
2022/10/25 09:24:01;;;;;;;11.30;7.40;;;14.00;99.90;;;;;;6119707;29;20312;-68
2022/10/25 09:27:08;;;;;;;11.00;7.55;;;13.90;99.90;;;;;;6119938;29;20295;-68
2022/10/25 09:30:13;;;;;;;12.77;7.60;;;14.00;99.90;;;;;;6119636;29;20303;-68
2022/10/25 09:33:21;;;;;;;13.45;7.05;;;14.00;99.90;;;;;;6119641;29;20300;-68
2022/10/25 09:36:31;;;;;;;10.07;7.05;;;14.10;99.90;;;;;;6119312;29;20276;-68
2022/10/25 09:39:40;;;;;;;13.20;6.32;;;14.20;99.90;;;;;;6119059;29;20292;-68
2022/10/25 09:42:51;;;;;;;8.82;6.65;;;14.20;99.90;;;;;;6119329;29;20296;-68
2022/10/25 09:45:59;;;;;;;13.43;6.85;;;14.10;99.90;;;;;;6119389;29;20474;-68
2022/10/25 09:49:14;;;;;;;9.30;6.68;;;14.10;99.90;;;;;;6119042;29;20623;-68
2022/10/25 09:52:27;;;;;;;10.25;5.57;;;14.20;99.90;;;;;;6118328;29;20287;-68
2022/10/25 09:55:38;;;;;;;9.15;6.35;;;14.10;99.90;;;;;;6119571;29;20271;-68
2022/10/25 09:58:45;;;;;;;7.10;6.32;;;14.10;99.90;;;;;;6118772;29;20296;-68
2022/10/25 10:01:50;;;;;;;6.63;5.88;;;14.10;99.90;;;;;;6118447;29;20332;-68
2022/10/25 10:04:55;;;;;;;9.20;6.80;;;14.20;99.90;;;;;;6119038;29;20308;-68
2022/10/25 10:08:01;;;;;;;14.23;6.65;;;14.10;99.90;;;;;;6117999;29;20295;-68
2022/10/25 10:11:07;;;;;;;15.07;6.68;;;14.10;99.90;;;;;;6132193;29;20571;-68
2022/10/25 10:14:18;;;;;;;11.50;6.82;;;14.10;99.90;;;;;;6142331;29;20295;-69
2022/10/25 10:17:23;;;;;;;14.73;7.20;;;14.00;99.90;;;;;;6141883;29;20271;-68
2022/10/25 10:20:28;;;;;;;15.73;6.80;;;14.00;99.90;;;;;;6142480;29;20275;-69
2022/10/25 10:23:44;;;;;;;12.80;7.00;;;14.10;99.90;;;;;;6141820;29;20303;-69
2022/10/25 10:26:54;;;;;;;14.35;6.55;;;14.10;99.90;;;;;;6142304;29;20276;-67
2022/10/25 10:30:01;;;;;;;10.18;5.90;;;14.10;99.90;;;;;;6141959;29;20295;-69
2022/10/25 10:33:08;;;;;;;10.63;6.55;;;14.00;99.90;;;;;;6141721;29;20299;-68
2022/10/25 10:36:26;;;;;;;10.38;6.55;;;14.00;99.90;;;;;;6142381;29;20271;-67
2022/10/25 10:39:32;;;;;;;11.23;6.60;;;14.00;99.90;;;;;;6141036;29;20300;-67
2022/10/25 10:42:40;;;;;;;12.23;6.30;;;14.00;99.90;;;;;;6141536;29;20562;-68
2022/10/25 10:45:50;;;;;;;13.73;6.68;;;14.00;99.90;;;;;;6141687;29;20272;-68
2022/10/25 10:48:56;;;;;;;11.63;6.20;;;13.90;99.90;;;;;;6141127;29;20303;-69
2022/10/25 10:52:01;;;;;;;10.32;6.40;;;13.90;99.90;;;;;;6141600;29;20295;-67
2022/10/25 10:55:18;;;;;;;11.50;5.82;;;14.00;99.90;;;;;;6141269;29;20307;-67
2022/10/25 10:58:25;;;;;;;12.18;6.38;;;14.10;99.90;;;;;;6141125;29;20299;-67
2022/10/25 11:01:32;;;;;;;8.30;5.45;;;14.10;99.90;;;;;;6141247;29;20575;-68
2022/10/25 11:04:48;;;;;;;12.63;5.03;;;14.10;99.90;;;;;;6140732;29;20312;-67
2022/10/25 11:07:56;;;;;;;13.93;5.53;;;14.10;99.90;;;;;;6140994;29;20295;-68
2022/10/25 11:11:16;;;;;;;10.60;5.65;;;14.10;99.90;;;;;;6128625;29;20268;-68
2022/10/25 11:14:21;;;;;;;8.95;5.60;;;14.20;99.90;;;;;;6116027;29;20403;-68
2022/10/25 11:17:29;;;;;;;17.23;5.20;;;14.20;99.90;;;;;;6116918;29;20271;-68
2022/10/25 11:20:47;;;;;;;6.45;4.85;;;14.30;99.90;;;;;;6117729;29;20268;-68
2022/10/25 11:24:06;;;;;;;8.38;4.95;;;14.20;99.90;;;;;;6116856;29;20311;-68
2022/10/25 11:27:19;;;;;;;10.25;4.53;;;14.30;99.90;;;;;;6117717;29;20276;-69
2022/10/25 11:30:25;;;;;;;7.80;4.20;;;14.30;99.90;;;;;;6116504;29;20281;-68
2022/10/25 11:33:43;;;;;;;8.82;4.70;;;14.30;99.90;;;;;;6116590;29;20299;-67
2022/10/25 11:36:58;;;;;;;4.82;4.18;;;14.30;99.90;;;;;;6100395;29;20272;-68
2022/10/25 11:40:13;;;;;;;10.23;4.38;;;14.30;99.90;;;;;;6116563;29;20299;-68
2022/10/25 11:43:34;;;;;;;9.55;4.22;;;14.30;99.90;;;;;;6116964;29;20584;-68
2022/10/25 11:46:46;;;;;;;9.93;3.72;;;14.40;99.90;;;;;;6117098;29;20671;-68
2022/10/25 11:50:02;;;;;;;11.55;3.97;;;14.50;99.90;;;;;;6117004;29;20315;-67
2022/10/25 11:53:29;;;;;;;3.75;3.42;;;14.50;99.90;;;;;;6116118;29;20315;-68
2022/10/25 11:56:41;;;;;;;6.18;3.22;;;14.50;99.90;;;;;;6116682;29;20271;-68
2022/10/25 11:59:59;;;;;;;9.18;3.40;;;14.60;99.90;;;;;;6116342;29;20438;-68
2022/10/25 12:03:25;;;;;;;9.70;3.40;;;14.50;99.90;;;;;;6116115;29;20301;-68
2022/10/25 12:06:34;;;;;;;8.75;3.67;;;14.50;99.90;;;;;;6117345;29;20272;-67
2022/10/25 12:09:49;;;;;;;7.20;3.20;;;14.50;99.90;;;;;;6117739;29;20332;-68
2022/10/25 12:12:57;;;;;;;5.45;3.30;;;14.50;99.90;;;;;;6139744;29;20295;-68
2022/10/25 12:16:06;;;;;;;9.00;3.53;;;14.40;99.90;;;;;;6140190;29;20558;-68
2022/10/25 12:19:18;;;;;;;5.03;3.03;;;14.40;99.90;;;;;;6140032;29;20302;-69
2022/10/25 12:22:26;;;;;;;11.52;3.13;;;14.40;99.90;;;;;;6139268;29;20571;-68
2022/10/25 12:25:35;;;;;;;3.60;3.22;;;14.30;99.90;;;;;;6142804;29;20271;-68
2022/10/25 12:28:45;;;;;;;6.82;2.85;;;14.40;99.90;;;;;;6144263;29;20312;-68
2022/10/25 12:31:56;;;;;;;3.67;2.70;;;14.30;99.90;;;;;;6144894;29;20287;-68
2022/10/25 12:35:05;;;;;;;5.57;3.17;;;14.30;99.90;;;;;;6144486;29;20310;-68
2022/10/25 12:38:17;;;;;;;6.72;3.03;;;14.30;99.90;;;;;;6144542;29;20604;-68
2022/10/25 12:41:26;;;;;;;5.93;2.67;;;14.30;99.90;;;;;;6145063;29;20279;-67
2022/10/25 12:44:57;;;;;;;2.92;2.58;;;14.30;99.90;;;;;;6143972;29;20303;-67
2022/10/25 12:48:15;;;;;;;8.00;2.85;;;14.20;99.90;;;;;;6143984;29;20291;-68
2022/10/25 12:51:36;;;;;;;2.80;2.60;;;14.20;99.90;;;;;;6144396;29;20458;-68
2022/10/25 12:55:15;;;;;;;5.93;2.78;;;14.20;99.90;;;;;;6143918;29;20307;-68
2022/10/25 12:58:34;;;;;;;4.47;2.75;;;14.20;99.90;;;;;;6143386;29;20295;-67
2022/10/25 13:02:02;;;;;;;7.45;2.80;;;14.20;99.90;;;;;;6144276;29;20442;-67
2022/10/25 13:05:30;;;;;;;5.57;2.65;;;14.10;99.90;;;;;;6143789;29;20480;-67
2022/10/25 13:08:38;;;;;;;7.63;2.60;;;14.20;99.90;;;;;;6143417;29;20587;-67
2022/10/25 13:11:49;;;;;;;3.17;2.50;;;14.20;99.90;;;;;;6125606;29;20552;-67
2022/10/25 13:14:58;;;;;;;2.55;2.33;;;14.20;99.90;;;;;;6119811;29;20304;-67
2022/10/25 13:18:05;;;;;;;5.50;2.80;;;14.20;99.90;;;;;;6120259;29;20312;-67
2022/10/25 13:21:14;;;;;;;5.07;2.35;;;14.10;99.90;;;;;;6120096;29;20472;-67
2022/10/25 13:24:38;;;;;;;4.38;2.58;;;14.20;99.90;;;;;;6119108;29;20300;-67
2022/10/25 13:28:20;;;;;;;3.33;2.63;;;14.20;99.90;;;;;;6119754;29;20296;-68
2022/10/25 13:31:48;;;;;;;3.63;2.90;;;14.00;99.90;;;;;;6120078;29;20276;-68
2022/10/25 13:34:54;;;;;;;5.45;2.30;;;14.00;99.90;;;;;;6119344;29;20308;-68
2022/10/25 13:38:06;;;;;;;7.55;2.83;;;13.90;99.90;;;;;;6118424;29;20323;-68
2022/10/25 13:41:15;;;;;;;10.10;2.90;;;13.90;99.90;;;;;;6119715;29;20308;-68
2022/10/25 13:44:21;;;;;;;5.85;3.15;;;14.00;99.90;;;;;;6119389;29;20304;-68
2022/10/25 13:47:35;;;;;;;8.32;2.47;;;14.00;99.90;;;;;;6119275;29;20275;-68
2022/10/25 13:50:44;;;;;;;4.78;2.67;;;13.80;99.90;;;;;;6119609;29;20268;-67
2022/10/25 13:53:52;;;;;;;6.65;2.80;;;13.80;99.90;;;;;;6118581;29;20308;-67
2022/10/25 13:56:57;;;;;;;8.70;2.70;;;13.80;99.90;;;;;;6119678;29;20576;-67
2022/10/25 14:00:02;;;;;;;8.00;2.70;;;13.80;99.90;;;;;;6118902;29;20496;-67
2022/10/25 14:03:34;;;;;;;5.05;2.70;;;13.80;99.90;;;;;;6119052;29;20305;-68
2022/10/25 14:06:41;;;;;;;3.85;2.38;;;13.70;99.90;;;;;;6118846;29;20272;-68
2022/10/25 14:09:52;;;;;;;7.10;2.78;;;13.80;99.90;;;;;;6109942;29;20299;-68
2022/10/25 14:13:14;;;;;;;6.32;2.70;;;13.80;99.90;;;;;;6135675;29;20295;-68
2022/10/25 14:16:27;;;;;;;12.27;3.38;;;13.70;99.90;;;;;;6142365;29;20559;-68
2022/10/25 14:19:37;;;;;;;4.50;3.08;;;13.80;99.90;;;;;;6141614;29;20299;-68
2022/10/25 14:22:43;;;;;;;4.28;2.70;;;13.70;99.90;;;;;;6141940;29;20290;-68
2022/10/25 14:25:56;;;;;;;8.27;3.05;;;13.80;99.90;;;;;;6142397;29;20280;-68
2022/10/25 14:29:14;;;;;;;6.65;3.30;;;13.70;99.90;;;;;;6141987;29;20295;-67
2022/10/25 14:32:20;;;;;;;5.95;3.10;;;13.70;99.90;;;;;;6142337;29;20275;-67
2022/10/25 14:35:31;;;;;;;8.38;3.30;;;13.70;99.90;;;;;;6141185;29;20583;-68
2022/10/25 14:38:50;;;;;;;7.05;3.17;;;13.80;99.90;;;;;;6141113;29;20485;-68
2022/10/25 14:41:58;;;;;;;11.25;3.30;;;13.80;99.90;;;;;;6124916;29;20280;-67
2022/10/25 14:45:03;;;;;;;11.43;3.00;;;13.80;99.90;;;;;;6141169;29;20299;-68
2022/10/25 14:48:15;;;;;;;13.48;3.50;;;13.80;99.90;;;;;;6141126;29;20295;-68
2022/10/25 14:51:21;;;;;;;7.65;3.17;;;13.70;99.90;;;;;;6142008;29;20271;-69
2022/10/25 14:54:30;;;;;;;9.07;3.53;;;13.70;99.90;;;;;;6139958;29;20302;-68
2022/10/25 14:57:36;;;;;;;8.07;3.60;;;13.70;99.90;;;;;;6140776;29;20271;-68
2022/10/25 15:00:53;;;;;;;18.80;3.75;;;13.70;99.90;;;;;;6141814;29;20267;-68
2022/10/25 15:04:00;;;;;;;10.70;3.58;;;13.70;99.90;;;;;;6140811;29;20627;-68
2022/10/25 15:07:06;;;;;;;8.50;3.60;;;13.80;99.90;;;;;;6141662;29;20267;-68
2022/10/25 15:10:39;;;;;;;10.02;3.10;;;13.70;99.90;;;;;;6134044;29;20303;-68
2022/10/25 15:13:48;;;;;;;11.40;3.95;;;13.70;99.90;;;;;;6117248;29;20303;-68
2022/10/25 15:17:02;;;;;;;13.88;3.75;;;13.70;99.90;;;;;;6101336;29;20444;-68
2022/10/25 15:20:29;;;;;;;12.23;3.28;;;13.70;99.90;;;;;;6117288;29;20312;-67
2022/10/25 15:23:35;;;;;;;9.23;2.95;;;13.60;99.90;;;;;;6116840;29;20303;-67
2022/10/25 15:26:52;;;;;;;11.93;3.33;;;13.60;99.90;;;;;;6117444;29;20271;-67
2022/10/25 15:29:58;;;;;;;12.48;4.20;;;13.60;99.90;;;;;;6116753;29;20300;-68
2022/10/25 15:33:05;;;;;;;10.75;3.63;;;13.70;99.90;;;;;;6116457;29;20300;-68
2022/10/25 15:36:21;;;;;;;8.57;3.50;;;13.60;99.90;;;;;;6117127;29;20300;-67
2022/10/25 15:39:29;;;;;;;13.73;3.45;;;13.60;99.90;;;;;;6116756;29;20301;-67
2022/10/25 15:42:34;;;;;;;10.63;3.65;;;13.60;99.90;;;;;;6116675;29;20275;-68
2022/10/25 15:45:41;;;;;;;10.35;3.08;;;13.60;99.90;;;;;;6117058;29;20275;-68
2022/10/25 15:48:47;;;;;;;5.85;3.33;;;13.60;99.90;;;;;;6116857;29;20300;-68
2022/10/25 15:51:54;;;;;;;8.60;4.00;;;13.60;99.90;;;;;;6117223;29;20276;-68
2022/10/25 15:54:59;;;;;;;10.48;3.63;;;13.60;99.90;;;;;;6116400;29;20307;-68
2022/10/25 15:58:04;;;;;;;14.38;3.63;;;13.60;99.90;;;;;;6116333;29;20299;-68
2022/10/25 16:01:15;;;;;;;8.73;3.80;;;13.50;99.90;;;;;;6115887;29;20271;-68
2022/10/25 16:04:21;;;;;;;8.35;3.65;;;13.60;99.90;;;;;;6099333;29;20292;-67
2022/10/25 16:07:26;;;;;;;11.52;3.55;;;13.60;99.90;;;;;;6115925;29;20272;-67
2022/10/25 16:10:31;;;;;;;10.75;3.53;;;13.50;99.90;;;;;;6121446;29;20263;-67
2022/10/25 16:13:38;;;;;;;8.32;3.08;;;13.50;99.90;;;;;;6139363;29;20295;-67